Amalia, New Mexico
Current Conditions -  °F | °C
As of 6:55 AM on Wednesday 26 Nov 2014 (Local Time) from KSKX Reporting Station
Clear Clear  
Wind Chill: 12°   Ceiling: Unl
Heat Index: 12°   Visibility: 10mi
Dew Point:   Wind: 3mph
Humidity: 85%   Direction: 350°N
Pressure: 30.32"   Gusts: NA
Location:  36.94°N, 105.45°W
Report Text: KSKX 261355Z AUTO 35003KT 10SM CLR M11/M13 A3032 RMK AO1
Loading
Personal Weather Stations






























Interactive Weather Map New forecast layout! Learn more

10-Day Weather Forecast

Advertisements
Track Severe Weather on mobile